Time;durP1;ratioP1;P1;durP2;ratioP2;P2;SDS_P1;SDS_P2;PMS_P1;PMS_P2;Temp;Humidity;BMP_temperature;BMP_pressure;BME280_temperature;BME280_humidity;BME280_pressure;Samples;Min_cycle;Max_cycle;Signal;HPM_P1;HPM_P2
2022/10/03 00:02:50;;;;;;;;;0.00;0.00;;;;;19.16;36.85;100532.13;146616;587;46010;-77
2022/10/03 00:06:32;;;;;;;;;0.00;0.00;;;;;19.60;37.27;100613.31;146612;641;46016;-76
2022/10/03 00:10:11;;;;;;;;;0.00;0.00;;;;;19.52;36.58;100596.53;146613;577;46021;-77
2022/10/03 00:13:32;;;;;;;;;1.00;1.00;;;;;21.37;36.96;100912.19;146607;676;46016;-77
2022/10/03 00:17:02;;;;;;;;;0.00;0.00;;;;;21.34;37.19;100906.84;146608;615;46020;-76
2022/10/03 00:20:39;;;;;;;;;1.00;0.00;;;;;21.32;37.01;100903.31;146604;624;46014;-74
2022/10/03 00:24:15;;;;;;;;;0.00;0.00;;;;;21.23;37.25;100895.31;146609;575;46012;-76
2022/10/03 00:27:59;;;;;;;;;0.00;0.00;;;;;20.14;37.13;100711.37;146605;615;46018;-75
2022/10/03 00:31:12;;;;;;;;;0.00;0.00;;;;;21.20;37.22;100896.16;146608;580;47010;-78
2022/10/03 00:34:46;;;;;;;;;0.00;0.00;;;;;21.27;37.36;100896.22;146604;605;46016;-77
2022/10/03 00:38:40;;;;;;;;;1.00;0.00;;;;;19.52;37.04;100578.12;146609;573;47012;-73
2022/10/03 00:42:22;;;;;;;;;0.67;0.00;;;;;19.64;37.12;100588.84;146608;609;46021;-73
2022/10/03 00:46:16;;;;;;;;;;;;;;;;;;;;;
2022/10/03 00:50:02;;;;;;;;;0.00;0.00;;;;;21.28;37.46;100892.69;146603;688;46016;-73
2022/10/03 00:53:33;;;;;;;;;0.00;0.00;;;;;21.10;37.45;100890.78;146609;675;47013;-76
2022/10/03 00:57:01;;;;;;;;;0.67;0.33;;;;;21.02;37.33;100887.16;146605;569;46037;-77
2022/10/03 01:00:27;;;;;;;;;0.00;0.00;;;;;20.99;38.08;100883.59;146610;610;46010;-74
2022/10/03 01:03:48;;;;;;;;;0.00;0.00;;;;;19.17;37.73;100580.31;146607;571;46016;-74
2022/10/03 01:07:20;;;;;;;;;0.00;0.00;;;;;20.85;38.06;100877.31;146606;628;46020;-74
2022/10/03 01:11:08;;;;;;;;;0.00;0.00;;;;;20.83;37.75;100868.50;146603;617;47014;-74
2022/10/03 01:14:41;;;;;;;;;0.00;0.00;;;;;20.76;38.16;100909.72;146608;618;46021;-78
2022/10/03 01:18:29;;;;;;;;;0.00;0.00;;;;;18.56;38.55;100490.94;146607;614;46016;-73
2022/10/03 01:21:55;;;;;;;;;0.00;0.00;;;;;18.79;38.74;100551.75;146607;573;46013;-73
2022/10/03 01:25:37;;;;;;;;;0.75;0.00;;;;;20.67;38.61;100866.56;146604;688;46016;-74
2022/10/03 01:33:23;;;;;;;;;0.00;0.00;;;;;20.65;38.51;100861.25;146605;615;47012;-73
2022/10/03 01:37:05;;;;;;;;;0.00;0.00;;;;;19.67;39.12;100706.38;146607;670;46011;-73
2022/10/03 01:40:37;;;;;;;;;0.00;0.00;;;;;18.50;38.70;100538.97;146605;579;46016;-75
2022/10/03 01:44:15;;;;;;;;;0.00;0.00;;;;;20.33;38.75;100858.19;146609;594;46011;-79
2022/10/03 01:47:58;;;;;;;;;0.00;0.00;;;;;20.34;39.15;100861.69;146606;576;46915;-76
2022/10/03 01:51:55;;;;;;;;;0.00;0.00;;;;;18.53;38.64;100533.78;146609;657;46010;-76
2022/10/03 01:55:13;;;;;;;;;0.00;0.00;;;;;20.39;39.02;100849.47;146607;580;46016;-73
2022/10/03 01:58:48;;;;;;;;;0.00;0.00;;;;;20.45;38.75;100854.81;146607;564;46020;-74
2022/10/03 02:02:28;;;;;;;;;0.00;0.00;;;;;18.63;38.66;100514.72;146607;575;46918;-72
2022/10/03 02:06:09;;;;;;;;;0.00;0.00;;;;;18.80;38.07;100532.47;146607;625;46020;-73
2022/10/03 02:09:30;;;;;;;;;0.00;0.00;;;;;20.67;38.35;100841.09;146606;599;46012;-78
2022/10/03 02:12:41;;;;;;;;;0.00;0.00;;;;;20.65;38.32;100834.91;146609;586;46012;-80
2022/10/03 02:16:15;;;;;;;;;1.50;0.50;;;;;18.78;38.27;100502.69;146609;570;46016;-73
2022/10/03 02:19:33;;;;;;;;;0.00;0.00;;;;;20.74;38.66;100837.63;146616;613;46012;-76
2022/10/03 02:22:53;;;;;;;;;0.00;0.00;;;;;20.76;38.15;100841.19;146613;611;46013;-78
2022/10/03 02:26:31;;;;;;;;;0.00;0.00;;;;;20.73;38.15;100841.16;146615;610;46020;-77
2022/10/03 02:29:52;;;;;;;;;0.00;0.00;;;;;20.66;38.55;100839.31;146610;643;46034;-74
2022/10/03 02:33:32;;;;;;;;;1.33;0.33;;;;;20.52;38.89;100856.69;146615;565;47010;-74
2022/10/03 02:37:11;;;;;;;;;0.00;0.00;;;;;20.40;38.68;100849.47;146609;604;46016;-76
2022/10/03 02:40:44;;;;;;;;;2.00;0.00;;;;;20.31;39.48;100852.00;146614;630;47010;-82
2022/10/03 02:44:14;;;;;;;;;0.00;0.00;;;;;20.18;39.10;100837.78;146607;631;46017;-82
2022/10/03 02:47:44;;;;;;;;;0.00;0.00;;;;;20.10;39.38;100835.94;146614;607;46020;-74
2022/10/03 02:51:09;;;;;;;;;0.00;0.00;;;;;20.00;39.51;100827.91;146612;569;46912;-74
2022/10/03 02:54:54;;;;;;;;;0.00;0.00;;;;;18.06;39.85;100498.88;146615;569;46020;-75
2022/10/03 02:58:21;;;;;;;;;0.00;0.00;;;;;19.77;40.05;100817.00;146611;570;46036;-84
2022/10/03 03:02:26;;;;;;;;;1.00;0.00;;;;;17.81;40.31;100471.34;146615;577;46022;-87
2022/10/03 03:05:56;;;;;;;;;1.00;0.00;;;;;19.84;39.70;100804.81;146610;599;46017;-78
2022/10/03 03:09:45;;;;;;;;;0.00;0.00;;;;;18.03;39.59;100483.09;146612;591;46020;-77
2022/10/03 03:13:06;;;;;;;;;1.25;0.75;;;;;20.00;40.03;100820.00;146610;627;46916;-79
2022/10/03 03:16:42;;;;;;;;;0.00;0.00;;;;;20.10;39.94;100821.00;146607;563;46021;-76
2022/10/03 03:20:25;;;;;;;;;0.00;0.00;;;;;20.20;39.91;100820.25;146605;654;46918;-78
2022/10/03 03:24:10;;;;;;;;;0.00;0.00;;;;;18.41;39.26;100492.50;146610;569;47010;-78
2022/10/03 03:28:12;;;;;;;;;0.33;0.00;;;;;18.36;39.54;100478.41;146616;629;46012;-88
2022/10/03 03:31:46;;;;;;;;;2.75;2.75;;;;;20.21;39.30;100800.97;146621;585;46021;-73
2022/10/03 03:35:18;;;;;;;;;0.75;0.75;;;;;18.19;39.67;100479.84;146616;594;46012;-76
2022/10/03 03:38:54;;;;;;;;;1.00;1.00;;;;;18.86;39.60;100612.25;146619;579;46020;-76
2022/10/03 03:42:45;;;;;;;;;0.00;0.00;;;;;17.82;39.57;100436.38;146617;602;46016;-76
2022/10/03 03:45:56;;;;;;;;;0.00;0.00;;;;;19.97;40.29;100800.63;146620;613;46020;-81
2022/10/03 03:49:28;;;;;;;;;0.00;0.00;;;;;18.23;39.92;100513.19;146617;672;46016;-78
2022/10/03 03:53:28;;;;;;;;;2.00;1.00;;;;;17.87;40.09;100468.84;146620;599;45024;-75
2022/10/03 03:57:09;;;;;;;;;0.00;0.00;;;;;19.69;40.39;100809.84;146618;602;46016;-80
2022/10/03 04:00:35;;;;;;;;;0.50;0.50;;;;;19.70;40.30;100812.53;146621;686;46021;-91
2022/10/03 04:04:04;;;;;;;;;1.00;1.00;;;;;17.48;40.23;100426.16;146616;684;46012;-85
2022/10/03 04:07:49;;;;;;;;;0.25;0.25;;;;;19.73;40.21;100807.31;146619;577;46010;-78
2022/10/03 04:11:25;;;;;;;;;0.00;0.00;;;;;19.70;40.47;100811.66;146618;577;46016;-80
2022/10/03 04:15:10;;;;;;;;;1.00;1.00;;;;;19.74;40.57;100800.31;146641;574;45011;-81
2022/10/03 04:19:01;;;;;;;;;0.00;0.00;;;;;17.98;40.12;100483.03;146641;690;45010;-77
2022/10/03 04:22:35;;;;;;;;;1.00;0.00;;;;;17.93;40.07;100472.44;146637;566;45915;-77
2022/10/03 04:26:07;;;;;;;;;0.75;0.75;;;;;18.08;40.20;100484.06;146638;666;45915;-77
2022/10/03 04:29:33;;;;;;;;;3.00;3.00;;;;;19.95;40.39;100799.75;146641;611;45021;-76
2022/10/03 04:33:19;;;;;;;;;1.00;1.00;;;;;17.99;40.16;100485.66;146637;698;45917;-77
2022/10/03 04:36:45;;;;;;;;;3.00;3.00;;;;;19.80;40.38;100809.16;146635;595;47917;-76
2022/10/03 04:40:04;;;;;;;;;3.50;3.25;;;;;19.71;40.54;100809.03;146641;601;45012;-76
2022/10/03 04:43:45;;;;;;;;;3.50;2.50;;;;;19.64;40.75;100806.25;146639;585;45021;-77
2022/10/03 04:47:12;;;;;;;;;3.75;2.00;;;;;17.63;41.42;100472.75;146636;581;45016;-76
2022/10/03 04:51:01;;;;;;;;;;;;;;;;;;;;;
2022/10/03 04:54:47;;;;;;;;;1.00;1.00;;;;;15.45;41.32;100133.28;146625;583;46014;-90
2022/10/03 04:58:19;;;;;;;;;3.50;2.00;;;;;19.33;42.04;100790.84;146628;617;45020;-84
2022/10/03 05:01:36;;;;;;;;;4.00;2.50;;;;;19.92;41.81;100789.16;146627;569;45014;-89
2022/10/03 05:05:12;;;;;;;;;3.00;0.50;;;;;21.22;40.44;100782.78;146625;587;46010;-87
2022/10/03 05:08:48;;;;;;;;;1.75;0.00;;;;;22.86;39.10;100775.75;146629;573;44016;-87
2022/10/03 05:12:19;;;;;;;;;1.00;1.00;;;;;24.43;36.63;100784.47;146629;576;46010;-86
2022/10/03 05:15:32;;;;;;;;;1.00;1.00;;;;;25.83;34.67;100783.47;146626;580;45016;-83
2022/10/03 05:19:02;;;;;;;;;1.25;1.25;;;;;25.97;33.73;100622.12;146628;639;44915;-90
2022/10/03 05:23:00;;;;;;;;;3.00;1.00;;;;;25.94;32.48;100437.09;146625;597;45915;-87
2022/10/03 05:26:39;;;;;;;;;4.25;2.75;;;;;27.96;31.91;100634.66;146627;580;45020;-83
2022/10/03 05:30:19;;;;;;;;;14.50;7.00;;;;;27.43;31.27;100428.91;146626;646;45016;-81
2022/10/03 05:33:56;;;;;;;;;5.00;3.00;;;;;29.73;29.89;100791.47;146626;578;46012;-70
2022/10/03 05:37:58;;;;;;;;;;;;;;;;;;;;;
2022/10/03 05:41:37;;;;;;;;;2.00;2.00;;;;;28.95;30.55;100788.91;146626;566;45913;-68
2022/10/03 05:45:30;;;;;;;;;;;;;;;;;;;;;
2022/10/03 05:48:55;;;;;;;;;4.00;4.00;;;;;27.73;31.60;100786.97;146628;638;45020;-77
2022/10/03 05:52:37;;;;;;;;;;;;;;;;;;;;;
2022/10/03 05:56:14;;;;;;;;;2.00;1.00;;;;;26.76;33.61;100795.66;146622;615;47010;-73
2022/10/03 05:59:39;;;;;;;;;3.00;2.00;;;;;26.57;34.19;100795.00;146628;594;45016;-76
2022/10/03 06:02:59;;;;;;;;;1.67;1.67;;;;;26.48;34.36;100792.44;146625;571;46020;-75
2022/10/03 06:06:34;;;;;;;;;2.00;2.00;;;;;26.39;34.54;100795.22;146631;594;45029;-76
2022/10/03 06:10:16;;;;;;;;;2.00;2.00;;;;;24.49;34.98;100476.97;146629;575;45020;-76
2022/10/03 06:13:56;;;;;;;;;2.00;1.25;;;;;26.34;34.73;100789.06;146614;652;46012;-75
2022/10/03 06:17:29;;;;;;;;;3.00;3.00;;;;;26.44;34.82;100788.06;146604;614;46010;-75
2022/10/03 06:20:58;;;;;;;;;4.00;3.00;;;;;26.59;34.58;100790.53;146602;612;46016;-73
2022/10/03 06:25:03;;;;;;;;;2.33;2.00;;;;;26.51;34.47;100759.63;146603;641;46010;-74
2022/10/03 06:28:41;;;;;;;;;4.33;3.33;;;;;26.59;34.87;100763.94;146599;653;46915;-77
2022/10/03 06:32:29;;;;;;;;;1.75;1.75;;;;;26.86;34.62;100786.63;146605;634;46020;-80
2022/10/03 06:35:53;;;;;;;;;3.25;3.00;;;;;26.95;34.33;100781.16;146599;572;46915;-77
2022/10/03 06:39:48;;;;;;;;;;;;;;;;;;;;;
2022/10/03 06:43:21;;;;;;;;;3.75;2.75;;;;;26.37;34.92;100637.50;146598;583;47013;-76
2022/10/03 06:47:05;;;;;;;;;2.00;2.00;;;;;26.40;35.20;100632.16;146600;564;46020;-78
2022/10/03 06:50:27;;;;;;;;;3.00;2.00;;;;;27.41;35.32;100774.22;146598;653;46017;-78
2022/10/03 06:54:09;;;;;;;;;2.33;2.00;;;;;26.10;35.11;100537.81;146602;593;47010;-75
2022/10/03 06:57:55;;;;;;;;;4.25;2.75;;;;;27.49;35.52;100782.09;146600;687;46013;-74
2022/10/03 07:01:31;;;;;;;;;3.00;3.00;;;;;27.46;35.76;100776.81;146604;565;46020;-76
2022/10/03 07:05:13;;;;;;;;;4.00;2.33;;;;;27.48;35.58;100780.34;146599;603;46017;-75
2022/10/03 07:08:49;;;;;;;;;1.67;1.33;;;;;27.46;36.13;100783.00;146602;575;46020;-75
2022/10/03 07:12:43;;;;;;;;;;;;;;;;;;;;;
2022/10/03 07:16:04;;;;;;;;;1.00;1.00;;;;;27.28;36.22;100786.00;146627;586;46012;-72
2022/10/03 07:19:50;;;;;;;;;;;;;;;;;;;;;
2022/10/03 07:23:33;;;;;;;;;1.00;1.00;;;;;27.14;37.00;100807.53;146626;641;45020;-73
2022/10/03 07:27:10;;;;;;;;;1.33;1.33;;;;;27.07;37.35;100804.06;146625;577;45915;-74
2022/10/03 07:30:33;;;;;;;;;2.67;2.00;;;;;27.13;37.49;100800.38;146631;580;45010;-73
2022/10/03 07:34:02;;;;;;;;;1.67;1.67;;;;;27.28;37.48;100792.19;146627;594;45017;-76
2022/10/03 07:41:42;;;;;;;;;3.00;2.00;;;;;27.29;37.21;100732.72;146628;578;45035;-77
2022/10/03 07:45:25;;;;;;;;;2.00;2.00;;;;;27.87;37.44;100789.41;146630;596;45020;-77
2022/10/03 07:48:55;;;;;;;;;1.33;1.33;;;;;28.08;37.40;100793.44;146630;599;45015;-75
2022/10/03 07:52:39;;;;;;;;;2.00;1.00;;;;;27.52;36.55;100673.72;146630;622;45010;-75
2022/10/03 07:56:08;;;;;;;;;1.67;1.67;;;;;28.26;36.71;100781.53;146627;565;45915;-77
2022/10/03 08:00:01;;;;;;;;;;;;;;;;;;;;;
2022/10/03 08:03:31;;;;;;;;;1.00;1.00;;;;;28.41;35.96;100772.34;146627;582;45913;-75
2022/10/03 08:06:53;;;;;;;;;2.00;2.00;;;;;28.42;36.70;100775.00;146630;576;45914;-74
2022/10/03 08:10:28;;;;;;;;;0.67;0.67;;;;;28.47;36.17;100766.88;146625;565;45913;-74
2022/10/03 08:13:42;;;;;;;;;1.00;0.00;;;;;28.49;36.09;100757.94;146617;631;45020;-74
2022/10/03 08:17:12;;;;;;;;;1.67;1.67;;;;;28.52;36.14;100757.00;146599;612;46016;-75
2022/10/03 08:21:04;;;;;;;;;0.33;0.33;;;;;28.52;36.83;100763.19;146606;577;46020;-67
2022/10/03 08:24:26;;;;;;;;;4.00;2.00;;;;;28.47;36.66;100754.41;146602;621;46016;-70
2022/10/03 08:28:22;;;;;;;;;1.00;1.00;;;;;27.59;37.88;100605.22;146606;605;46010;-73
2022/10/03 08:31:59;;;;;;;;;1.00;1.00;;;;;28.41;37.46;100757.25;146601;581;46016;-72
2022/10/03 08:35:37;;;;;;;;;1.00;1.00;;;;;28.22;39.07;100746.03;146605;592;46020;-71
2022/10/03 08:39:25;;;;;;;;;1.33;1.33;;;;;27.92;38.63;100739.56;146602;577;46016;-83
2022/10/03 08:43:05;;;;;;;;;3.00;1.33;;;;;26.70;38.68;100519.97;146605;579;46010;-70
2022/10/03 08:46:49;;;;;;;;;2.00;2.00;;;;;28.06;39.01;100737.47;146599;599;46014;-71
2022/10/03 08:50:40;;;;;;;;;2.33;1.00;;;;;28.23;38.34;100729.16;146604;614;46010;-70
2022/10/03 08:54:14;;;;;;;;;2.00;2.00;;;;;28.40;38.51;100728.78;146601;577;46911;-69
2022/10/03 08:57:53;;;;;;;;;1.33;1.33;;;;;27.64;37.60;100569.59;146604;578;46021;-70
2022/10/03 09:01:26;;;;;;;;;0.00;0.00;;;;;28.59;38.15;100717.72;146602;571;46016;-71
2022/10/03 09:05:05;;;;;;;;;0.33;0.33;;;;;27.23;37.38;100461.31;146603;651;46021;-70
2022/10/03 09:08:46;;;;;;;;;0.67;0.67;;;;;28.66;38.33;100695.31;146601;602;46016;-71
2022/10/03 09:12:08;;;;;;;;;1.50;1.50;;;;;28.58;39.06;100694.63;146601;578;46020;-70
2022/10/03 09:16:01;;;;;;;;;2.00;2.00;;;;;27.13;40.34;100438.41;146619;578;46016;-72
2022/10/03 09:19:51;;;;;;;;;1.67;1.67;;;;;28.52;38.27;100687.63;146624;613;46010;-73
2022/10/03 09:23:23;;;;;;;;;1.00;1.00;;;;;28.55;38.76;100692.91;146627;645;46012;-72
2022/10/03 09:26:56;;;;;;;;;0.67;0.67;;;;;28.60;37.97;100682.09;146627;579;46010;-74
2022/10/03 09:30:32;;;;;;;;;1.00;1.00;;;;;28.06;37.63;100571.34;146624;581;45016;-70
2022/10/03 09:34:17;;;;;;;;;1.00;1.00;;;;;28.63;38.13;100672.25;146630;582;45031;-69
2022/10/03 09:37:48;;;;;;;;;1.67;1.67;;;;;28.61;38.31;100665.22;146626;587;46914;-72
2022/10/03 09:41:27;;;;;;;;;0.33;0.00;;;;;27.77;38.08;100516.94;146630;572;46010;-70
2022/10/03 09:45:26;;;;;;;;;0.00;0.00;;;;;27.84;38.55;100509.69;146626;565;46012;-70
2022/10/03 09:48:49;;;;;;;;;0.00;0.00;;;;;28.68;38.30;100656.12;146626;582;45021;-71
2022/10/03 09:52:20;;;;;;;;;1.67;0.67;;;;;28.69;38.80;100647.19;146626;649;46012;-70
2022/10/03 09:55:50;;;;;;;;;1.00;0.67;;;;;28.69;38.53;100640.09;146624;591;46012;-70
2022/10/03 09:59:23;;;;;;;;;0.33;0.33;;;;;27.84;38.96;100499.03;146624;573;46014;-72
2022/10/03 10:03:01;;;;;;;;;1.00;1.00;;;;;28.75;38.81;100639.03;146630;578;45011;-70
2022/10/03 10:06:30;;;;;;;;;0.67;0.67;;;;;28.89;38.11;100638.72;146625;627;45018;-73
2022/10/03 10:10:19;;;;;;;;;1.00;1.00;;;;;28.92;38.25;100618.16;146629;631;45913;-72
2022/10/03 10:13:59;;;;;;;;;0.67;0.67;;;;;27.42;37.41;100328.66;146610;617;47016;-73
2022/10/03 10:17:41;;;;;;;;;2.00;2.00;;;;;29.19;37.49;100599.66;146602;581;46020;-70
2022/10/03 10:21:09;;;;;;;;;1.33;1.33;;;;;29.26;37.13;100593.25;146601;591;46018;-72
2022/10/03 10:24:26;;;;;;;;;1.00;1.00;;;;;29.34;36.91;100598.34;146604;634;46020;-71
2022/10/03 10:28:04;;;;;;;;;2.33;1.00;;;;;28.01;36.46;100349.41;146601;619;46019;-71
2022/10/03 10:31:30;;;;;;;;;1.00;0.00;;;;;29.36;36.57;100589.37;146604;584;46012;-71
2022/10/03 10:35:12;;;;;;;;;1.00;1.00;;;;;28.06;36.35;100369.66;146603;658;46012;-70
2022/10/03 10:38:50;;;;;;;;;1.00;1.00;;;;;29.38;36.65;100592.03;146605;629;46020;-70
2022/10/03 10:42:18;;;;;;;;;0.67;0.67;;;;;29.46;36.79;100579.31;146602;608;46016;-71
2022/10/03 10:45:59;;;;;;;;;2.33;2.00;;;;;28.66;35.91;100433.84;146603;615;46020;-70
2022/10/03 10:49:47;;;;;;;;;;;;;;;;;;;;;
2022/10/03 10:53:25;;;;;;;;;0.67;0.00;;;;;28.74;35.13;100430.06;146605;631;46020;-72
2022/10/03 10:56:55;;;;;;;;;0.00;0.00;;;;;28.18;35.30;100317.81;146603;668;46016;-71
2022/10/03 11:00:29;;;;;;;;;0.00;0.00;;;;;29.76;35.15;100561.53;146604;623;46020;-70
2022/10/03 11:04:01;;;;;;;;;0.00;0.00;;;;;29.82;34.88;100556.00;146602;585;46016;-71
2022/10/03 11:07:40;;;;;;;;;0.33;0.00;;;;;29.79;33.97;100550.75;146605;641;46020;-71
2022/10/03 11:10:59;;;;;;;;;0.33;0.00;;;;;29.81;34.52;100540.88;146601;605;46017;-73
2022/10/03 11:14:41;;;;;;;;;0.00;0.00;;;;;29.84;33.01;100535.44;146605;664;46020;-72
2022/10/03 11:18:10;;;;;;;;;0.00;0.00;;;;;29.67;33.11;100527.06;146600;647;46016;-72
2022/10/03 11:21:44;;;;;;;;;1.00;0.00;;;;;29.50;34.15;100526.66;146607;638;45020;-71
2022/10/03 11:25:34;;;;;;;;;1.33;1.00;;;;;28.71;33.97;100381.25;146601;628;47012;-71
2022/10/03 11:29:08;;;;;;;;;0.00;0.00;;;;;29.45;34.29;100522.34;146602;611;46020;-70
2022/10/03 11:32:41;;;;;;;;;0.00;0.00;;;;;29.51;32.97;100515.94;146603;601;46013;-72
2022/10/03 11:36:12;;;;;;;;;0.00;0.00;;;;;29.68;32.78;100515.44;146600;597;46020;-73
2022/10/03 11:39:53;;;;;;;;;1.33;0.33;;;;;29.75;33.39;100505.44;146599;575;47016;-73
2022/10/03 11:43:31;;;;;;;;;0.33;0.00;;;;;29.77;33.08;100498.25;146606;565;46010;-72
2022/10/03 11:47:07;;;;;;;;;1.00;1.00;;;;;28.49;33.86;100266.31;146600;607;46017;-71
2022/10/03 11:50:41;;;;;;;;;0.00;0.00;;;;;29.93;34.18;100503.06;146601;632;46914;-72
2022/10/03 11:54:11;;;;;;;;;0.00;0.00;;;;;28.65;34.46;100261.37;146598;665;46016;-74
2022/10/03 11:57:35;;;;;;;;;1.33;1.00;;;;;30.06;33.41;100494.63;146602;604;47012;-74
2022/10/03 12:00:59;;;;;;;;;0.00;0.00;;;;;29.23;33.35;100347.69;146599;653;46016;-71
2022/10/03 12:04:39;;;;;;;;;0.33;0.00;;;;;29.43;33.68;100387.09;146600;569;46020;-71
2022/10/03 12:12:13;;;;;;;;;2.67;1.00;;;;;28.55;33.89;100231.44;146600;563;46020;-72
2022/10/03 12:15:56;;;;;;;;;0.00;0.00;;;;;30.13;33.91;100480.16;146627;584;46012;-73
2022/10/03 12:19:22;;;;;;;;;1.00;0.00;;;;;30.24;33.45;100475.34;146630;590;45020;-71
2022/10/03 12:23:24;;;;;;;;;1.00;1.00;;;;;29.53;33.49;100329.75;146626;599;46012;-72
2022/10/03 12:27:00;;;;;;;;;0.00;0.00;;;;;29.74;33.13;100367.41;146631;635;45914;-73
2022/10/03 12:30:08;;;;;;;;;1.00;0.00;;;;;30.43;33.04;100478.25;146630;678;45015;-71
2022/10/03 12:33:54;;;;;;;;;1.00;0.67;;;;;29.62;34.02;100334.81;146627;621;45020;-72
2022/10/03 12:37:18;;;;;;;;;0.00;0.00;;;;;30.41;33.26;100473.91;146627;613;46012;-72
2022/10/03 12:40:57;;;;;;;;;0.33;0.33;;;;;30.08;33.78;100436.66;146627;620;46012;-70
2022/10/03 12:44:31;;;;;;;;;0.00;0.00;;;;;30.19;33.93;100487.06;146629;609;45018;-72
2022/10/03 12:48:02;;;;;;;;;2.00;1.00;;;;;29.22;33.98;100351.25;146627;564;46012;-73
2022/10/03 12:51:38;;;;;;;;;0.00;0.00;;;;;30.01;34.89;100491.25;146628;565;45016;-72
2022/10/03 12:55:05;;;;;;;;;1.67;1.00;;;;;29.98;35.08;100494.03;146630;591;45021;-73
2022/10/03 12:58:45;;;;;;;;;0.33;0.33;;;;;29.89;35.76;100489.84;146630;570;46012;-71
2022/10/03 13:02:19;;;;;;;;;1.00;1.00;;;;;29.80;36.05;100488.34;146632;662;45011;-74
2022/10/03 13:05:48;;;;;;;;;0.33;0.33;;;;;29.69;36.19;100485.16;146626;646;46012;-71
2022/10/03 13:09:26;;;;;;;;;1.00;1.00;;;;;29.65;36.23;100489.69;146629;590;45020;-71
2022/10/03 13:13:08;;;;;;;;;1.00;1.00;;;;;28.66;35.75;100296.03;146625;584;46014;-71
2022/10/03 13:16:30;;;;;;;;;1.33;1.33;;;;;29.61;35.64;100480.03;146632;598;45010;-72
2022/10/03 13:19:52;;;;;;;;;1.00;1.00;;;;;28.13;35.18;100245.13;146628;664;45016;-73
2022/10/03 13:23:34;;;;;;;;;2.67;1.33;;;;;28.63;35.97;100346.81;146629;577;45021;-72
2022/10/03 13:27:31;;;;;;;;;2.00;2.00;;;;;28.49;36.48;100332.97;146627;613;45916;-72
2022/10/03 13:30:42;;;;;;;;;2.00;2.00;;;;;29.18;36.20;100477.75;146631;575;45021;-72
2022/10/03 13:33:57;;;;;;;;;2.67;1.33;;;;;29.14;35.94;100481.44;146625;575;45016;-71
2022/10/03 13:37:10;;;;;;;;;0.33;0.33;;;;;29.16;35.87;100476.91;146624;687;46010;-73
2022/10/03 13:40:21;;;;;;;;;1.33;0.67;;;;;29.11;35.69;100473.53;146625;565;45916;-74
2022/10/03 13:43:19;;;;;;;;;1.00;1.00;;;;;29.08;35.36;100473.63;146630;637;45020;-74
2022/10/03 13:46:32;;;;;;;;;1.00;1.00;;;;;29.10;35.35;100479.81;146625;613;46016;-77
2022/10/03 13:49:44;;;;;;;;;2.00;2.00;;;;;29.11;36.07;100476.19;146628;566;46010;-73
2022/10/03 13:53:21;;;;;;;;;1.00;1.00;;;;;29.15;35.95;100483.19;146630;601;45013;-72
2022/10/03 13:57:14;;;;;;;;;;;;;;;;;;;;;
2022/10/03 14:00:56;;;;;;;;;1.33;1.33;;;;;28.88;36.49;100445.69;146628;612;45016;-77
2022/10/03 14:04:27;;;;;;;;;1.00;1.00;;;;;28.14;35.32;100334.81;146629;640;46010;-77
2022/10/03 14:08:01;;;;;;;;;1.33;1.33;;;;;28.81;37.37;100480.56;146623;573;46013;-74
2022/10/03 14:11:39;;;;;;;;;2.00;2.00;;;;;27.93;37.88;100352.25;146629;571;45010;-75
2022/10/03 14:15:17;;;;;;;;;1.00;1.00;;;;;28.70;37.57;100489.75;146602;609;46017;-73
2022/10/03 14:18:53;;;;;;;;;1.00;1.00;;;;;28.55;36.66;100488.37;146606;573;46020;-72
2022/10/03 14:22:20;;;;;;;;;1.00;1.00;;;;;28.45;37.31;100489.53;146600;566;46015;-73
2022/10/03 14:25:45;;;;;;;;;;;;;;;;;;;;;
2022/10/03 14:29:09;;;;;;;;;2.00;2.00;;;;;27.51;37.66;100346.16;146602;588;46017;-72
2022/10/03 14:32:44;;;;;;;;;0.67;0.67;;;;;27.54;38.32;100341.66;146604;607;46010;-72
2022/10/03 14:36:29;;;;;;;;;1.00;1.00;;;;;27.30;37.67;100303.19;146603;623;46016;-75
2022/10/03 14:40:08;;;;;;;;;2.00;1.00;;;;;28.38;37.63;100495.03;146605;649;46010;-71
2022/10/03 14:43:25;;;;;;;;;2.33;2.33;;;;;28.31;38.51;100487.19;146600;592;46915;-72
2022/10/03 14:46:22;;;;;;;;;1.00;1.00;;;;;28.28;38.53;100491.72;146607;582;46010;-73
2022/10/03 14:49:31;;;;;;;;;3.00;1.00;;;;;28.23;38.88;100499.84;146599;565;47012;-73
2022/10/03 14:53:09;;;;;;;;;2.00;2.00;;;;;28.17;39.29;100496.47;146601;609;47010;-72
2022/10/03 14:56:30;;;;;;;;;1.67;1.67;;;;;28.12;39.93;100493.91;146600;575;46016;-71
2022/10/03 14:59:41;;;;;;;;;0.33;0.33;;;;;28.05;39.27;100495.84;146605;559;46021;-72
2022/10/03 15:02:50;;;;;;;;;1.33;1.00;;;;;28.06;39.19;100502.91;146601;569;46016;-73
2022/10/03 15:06:20;;;;;;;;;2.00;2.00;;;;;28.08;38.90;100503.78;146603;570;46021;-71
2022/10/03 15:09:34;;;;;;;;;2.67;2.00;;;;;28.07;38.94;100504.69;146601;570;46016;-71
2022/10/03 15:12:47;;;;;;;;;1.00;1.00;;;;;28.03;38.68;100500.34;146605;585;46020;-71
2022/10/03 15:15:55;;;;;;;;;1.67;1.00;;;;;28.00;39.37;100508.41;146604;596;46012;-71
2022/10/03 15:18:59;;;;;;;;;2.33;0.67;;;;;27.91;39.75;100513.94;146604;599;46010;-70
2022/10/03 15:22:05;;;;;;;;;1.67;1.00;;;;;27.80;40.42;100516.00;146599;599;46915;-73
2022/10/03 15:25:50;;;;;;;;;2.33;2.33;;;;;26.95;39.72;100398.00;146606;578;46020;-72
2022/10/03 15:29:02;;;;;;;;;2.00;1.00;;;;;27.53;38.83;100518.34;146600;564;46012;-73
2022/10/03 15:32:06;;;;;;;;;2.00;1.00;;;;;27.47;40.20;100513.12;146602;594;46010;-73
2022/10/03 15:35:34;;;;;;;;;2.00;1.00;;;;;27.42;39.39;100531.03;146599;653;46014;-74
2022/10/03 15:38:59;;;;;;;;;4.00;2.33;;;;;27.37;40.44;100524.91;146600;607;46020;-72
2022/10/03 15:42:41;;;;;;;;;2.00;2.00;;;;;26.41;39.96;100384.88;146603;637;46016;-72
2022/10/03 15:45:41;;;;;;;;;1.67;1.67;;;;;27.16;41.13;100542.19;146603;593;46020;-73
2022/10/03 15:48:37;;;;;;;;;1.67;1.00;;;;;27.07;42.08;100545.00;146600;564;46016;-73
2022/10/03 15:51:38;;;;;;;;;2.33;2.33;;;;;27.02;41.03;100550.41;146603;581;46021;-73
2022/10/03 15:54:37;;;;;;;;;0.33;0.33;;;;;26.96;41.07;100542.56;146601;584;46016;-72
2022/10/03 15:57:46;;;;;;;;;3.00;2.00;;;;;26.90;42.01;100550.66;146604;632;47010;-74
2022/10/03 16:00:40;;;;;;;;;1.67;1.67;;;;;26.72;40.89;100549.19;146601;611;46012;-74
2022/10/03 16:04:06;;;;;;;;;3.00;2.00;;;;;26.58;40.36;100562.75;146605;619;46010;-73
2022/10/03 16:07:20;;;;;;;;;2.33;1.00;;;;;26.53;38.80;100558.41;146602;622;46016;-73
2022/10/03 16:10:36;;;;;;;;;0.67;0.00;;;;;26.49;36.57;100560.25;146605;634;46020;-72
2022/10/03 16:13:52;;;;;;;;;2.00;2.00;;;;;26.45;36.75;100562.06;146601;635;47012;-74
2022/10/03 16:17:27;;;;;;;;;1.00;1.00;;;;;25.55;39.11;100417.34;146606;566;46010;-73
2022/10/03 16:20:47;;;;;;;;;2.33;0.00;;;;;26.27;37.53;100557.03;146602;566;46012;-72
2022/10/03 16:24:06;;;;;;;;;1.00;1.00;;;;;26.22;38.75;100562.41;146602;593;46012;-73
2022/10/03 16:27:19;;;;;;;;;0.67;0.67;;;;;25.31;37.58;100413.25;146599;590;47012;-72
2022/10/03 16:30:53;;;;;;;;;2.00;0.00;;;;;26.17;39.77;100568.72;146605;601;46020;-72
2022/10/03 16:34:00;;;;;;;;;1.00;1.00;;;;;26.08;39.95;100572.37;146602;586;46016;-71
2022/10/03 16:36:59;;;;;;;;;2.00;1.00;;;;;26.05;39.55;100577.75;146604;628;46020;-74
2022/10/03 16:40:15;;;;;;;;;0.00;0.00;;;;;26.09;39.34;100579.44;146602;569;46016;-71
2022/10/03 16:43:27;;;;;;;;;1.33;1.33;;;;;26.14;40.28;100576.75;146604;573;46011;-73
2022/10/03 16:46:24;;;;;;;;;1.00;1.00;;;;;26.20;40.99;100582.84;146598;574;47012;-73
2022/10/03 16:53:18;;;;;;;;;1.00;1.00;;;;;26.18;42.05;100586.41;146599;591;46014;-73
2022/10/03 16:56:29;;;;;;;;;;;;;;;;;;;;;
2022/10/03 16:59:32;;;;;;;;;1.00;0.67;;;;;25.87;43.22;100602.78;146600;576;46017;-74
2022/10/03 17:02:30;;;;;;;;;1.00;1.00;;;;;25.78;44.09;100603.75;146602;577;46020;-74
2022/10/03 17:05:26;;;;;;;;;0.67;0.67;;;;;25.69;44.98;100609.19;146602;594;46013;-75